Terminal Aerodrome Forecast
Issued by NWS

Home | Current Version | Previous Version | Text Only | Print | Product List | Glossary On
Versions: 1 2 3 4 5 6 7 8 9 10 11 12 13 14 15 16
964
FTUS44 KMAF 030527
TAFCNM
TAF
KCNM 030527Z 0306/0406 36011KT P6SM OVC012
      TEMPO 0306/0310 4SM -RA BR OVC008
     FM031000 34017KT 5SM -RADZ BR OVC009=

USA.gov is the U.S. government's official web portal to all federal, state and local government web resources and services.